Time;durP1;ratioP1;P1;durP2;ratioP2;P2;SDS_P1;SDS_P2;PMS_P1;PMS_P2;Temp;Humidity;BMP_temperature;BMP_pressure;BME280_temperature;BME280_humidity;BME280_pressure;Samples;Min_cycle;Max_cycle;Signal;HPM_P1;HPM_P2
2023/03/02 00:00:36;;;;;;;25.75;15.88;;;15.50;41.80;;;;;;5000872;28;20221;-80
2023/03/02 00:03:04;;;;;;;23.98;15.80;;;15.50;42.00;;;;;;4966248;28;20203;-80
2023/03/02 00:05:32;;;;;;;27.45;15.38;;;15.50;41.90;;;;;;4980478;28;20193;-80
2023/03/02 00:07:59;;;;;;;26.45;15.95;;;15.50;42.10;;;;;;4964451;28;20621;-80
2023/03/02 00:10:27;;;;;;;26.35;15.38;;;15.50;42.20;;;;;;4998179;28;20185;-80
2023/03/02 00:12:54;;;;;;;23.02;14.65;;;15.40;42.70;;;;;;4981009;28;20209;-80
2023/03/02 00:15:22;;;;;;;22.80;14.98;;;15.40;42.10;;;;;;4967029;28;20617;-80
2023/03/02 00:17:50;;;;;;;24.00;15.10;;;15.40;42.10;;;;;;4982346;28;20245;-80
2023/03/02 00:20:17;;;;;;;25.13;16.13;;;15.30;42.00;;;;;;4982025;28;20217;-80
2023/03/02 00:22:44;;;;;;;22.40;14.45;;;15.30;42.00;;;;;;4982809;28;20221;-80
2023/03/02 00:25:12;;;;;;;24.55;15.38;;;15.30;42.20;;;;;;4965819;28;20637;-80
2023/03/02 00:27:39;;;;;;;24.05;15.20;;;15.30;42.10;;;;;;4981832;28;20279;-80
2023/03/02 00:30:07;;;;;;;23.30;14.98;;;15.30;42.30;;;;;;4982561;28;20289;-80
2023/03/02 00:32:36;;;;;;;22.90;14.80;;;15.20;42.20;;;;;;4980317;28;20208;-80
2023/03/02 00:35:03;;;;;;;20.38;14.25;;;15.20;42.20;;;;;;4980401;28;20201;-80
2023/03/02 00:37:31;;;;;;;21.80;14.82;;;15.20;42.30;;;;;;4980895;28;20672;-80
2023/03/02 00:39:58;;;;;;;23.20;14.32;;;15.20;42.40;;;;;;4981472;28;20201;-81
2023/03/02 00:42:26;;;;;;;23.67;14.77;;;15.20;42.30;;;;;;4979915;28;20328;-81
2023/03/02 00:44:53;;;;;;;22.30;14.98;;;15.10;42.30;;;;;;4979675;28;20201;-80
2023/03/02 00:47:20;;;;;;;20.77;14.45;;;15.10;42.40;;;;;;4980998;28;20204;-80
2023/03/02 00:49:48;;;;;;;20.35;14.32;;;15.20;42.30;;;;;;4980082;28;20221;-80
2023/03/02 00:52:15;;;;;;;19.63;13.68;;;15.20;42.40;;;;;;4982032;28;20205;-80
2023/03/02 00:54:43;;;;;;;18.33;13.90;;;15.10;42.50;;;;;;4989906;28;20198;-80
2023/03/02 00:57:10;;;;;;;22.35;15.25;;;15.10;42.40;;;;;;4987381;28;20208;-80
2023/03/02 00:59:37;;;;;;;23.17;14.50;;;15.10;42.40;;;;;;4988005;28;20244;-81
2023/03/02 01:02:13;;;;;;;20.63;14.20;;;15.10;42.40;;;;;;4987959;28;20264;-80
2023/03/02 01:04:41;;;;;;;20.27;14.38;;;15.00;42.50;;;;;;4988682;28;20248;-81
2023/03/02 01:07:10;;;;;;;21.40;14.77;;;15.00;42.30;;;;;;4989524;28;20280;-81
2023/03/02 01:09:38;;;;;;;20.92;15.13;;;15.00;42.50;;;;;;4988482;28;20221;-81
2023/03/02 01:12:08;;;;;;;20.95;14.45;;;15.00;42.50;;;;;;4988964;28;20200;-81
2023/03/02 01:14:35;;;;;;;22.20;14.82;;;14.90;42.30;;;;;;4987988;28;20198;-81
2023/03/02 01:17:02;;;;;;;20.70;13.77;;;15.00;42.00;;;;;;4987016;28;20612;-80
2023/03/02 01:19:30;;;;;;;18.30;13.55;;;14.90;42.40;;;;;;4987174;28;20221;-80
2023/03/02 01:21:57;;;;;;;19.25;14.13;;;14.90;42.20;;;;;;4987581;28;20272;-80
2023/03/02 01:24:26;;;;;;;18.52;14.27;;;14.90;42.40;;;;;;4984715;28;20197;-80
2023/03/02 01:26:53;;;;;;;18.77;13.25;;;14.90;42.30;;;;;;4984402;28;20201;-80
2023/03/02 01:29:20;;;;;;;17.83;13.48;;;14.80;42.30;;;;;;4983514;28;20221;-80
2023/03/02 01:31:48;;;;;;;21.05;14.27;;;14.90;42.50;;;;;;4984542;28;20201;-80
2023/03/02 01:34:15;;;;;;;21.08;14.15;;;14.80;42.40;;;;;;4983635;28;20206;-80
2023/03/02 01:36:44;;;;;;;19.58;14.30;;;14.80;42.40;;;;;;4983141;28;20296;-80
2023/03/02 01:39:14;;;;;;;18.88;13.48;;;14.80;42.40;;;;;;4985137;28;20229;-80
2023/03/02 01:45:47;;;;;;;19.65;13.63;;;14.80;42.50;;;;;;4982223;28;20240;-80
2023/03/02 01:48:22;;;;;;;19.63;13.38;;;14.80;42.60;;;;;;4982596;28;20217;-80
2023/03/02 01:50:50;;;;;;;18.13;13.20;;;14.80;42.60;;;;;;4982382;28;20188;-80
2023/03/02 01:53:17;;;;;;;19.10;13.05;;;14.70;42.50;;;;;;4982642;28;20204;-80
2023/03/02 01:55:44;;;;;;;17.60;12.95;;;14.70;42.40;;;;;;4982615;28;20201;-80
2023/03/02 01:58:12;;;;;;;20.75;13.77;;;14.70;42.50;;;;;;4982208;28;20217;-80
2023/03/02 02:00:39;;;;;;;16.38;12.85;;;14.70;42.60;;;;;;4982112;28;20229;-80
2023/03/02 02:03:09;;;;;;;16.63;12.52;;;14.70;42.80;;;;;;4966078;28;20235;-80
2023/03/02 02:05:37;;;;;;;15.32;12.60;;;14.60;42.40;;;;;;4981475;28;20244;-80
2023/03/02 02:08:05;;;;;;;17.05;12.88;;;14.60;42.50;;;;;;4982960;28;20635;-80
2023/03/02 02:10:32;;;;;;;19.52;13.77;;;14.60;42.50;;;;;;4983708;28;20256;-81
2023/03/02 02:13:00;;;;;;;17.50;12.88;;;14.60;42.50;;;;;;4983498;28;20193;-81
2023/03/02 02:15:27;;;;;;;17.27;12.95;;;14.60;42.60;;;;;;4983608;28;20581;-81
2023/03/02 02:17:54;;;;;;;15.82;12.75;;;14.60;42.50;;;;;;4966513;28;20221;-81
2023/03/02 02:20:27;;;;;;;17.38;13.18;;;14.60;42.80;;;;;;4982588;28;20216;-80
2023/03/02 02:22:59;;;;;;;16.15;12.45;;;14.60;42.50;;;;;;4982307;28;20217;-80
2023/03/02 02:25:36;;;;;;;16.38;12.48;;;14.60;42.70;;;;;;4981806;28;20571;-80
2023/03/02 02:28:07;;;;;;;16.83;13.05;;;14.50;42.60;;;;;;4982163;28;20312;-80
2023/03/02 02:30:34;;;;;;;16.60;12.63;;;14.60;42.70;;;;;;4982160;28;20667;-80
2023/03/02 02:33:02;;;;;;;15.82;11.90;;;14.50;42.70;;;;;;4981935;28;20228;-80
2023/03/02 02:35:30;;;;;;;18.08;12.57;;;14.50;42.70;;;;;;4981841;28;20209;-80
2023/03/02 02:38:01;;;;;;;15.80;11.88;;;14.50;42.60;;;;;;4981302;28;20734;-79
2023/03/02 02:40:40;;;;;;;17.45;13.32;;;14.50;42.60;;;;;;4981379;28;20235;-79
2023/03/02 02:43:11;;;;;;;16.63;12.80;;;14.50;42.60;;;;;;4981173;28;20194;-79
2023/03/02 02:45:38;;;;;;;18.15;12.75;;;14.40;42.60;;;;;;4980743;28;20213;-79
2023/03/02 02:48:05;;;;;;;18.10;13.38;;;14.40;42.60;;;;;;4980449;28;20221;-79
2023/03/02 02:50:36;;;;;;;16.85;12.07;;;14.40;42.50;;;;;;4980623;28;20201;-79
2023/03/02 02:53:06;;;;;;;17.02;12.40;;;14.40;42.70;;;;;;4965095;28;20200;-79
2023/03/02 02:55:33;;;;;;;15.32;12.43;;;14.40;42.60;;;;;;4965064;28;20209;-79
2023/03/02 02:58:08;;;;;;;16.33;12.38;;;14.40;42.80;;;;;;4981955;28;20249;-79
2023/03/02 03:00:38;;;;;;;15.43;12.38;;;14.40;42.80;;;;;;4988459;28;20259;-80
2023/03/02 03:03:06;;;;;;;16.75;12.32;;;14.40;42.70;;;;;;4988563;28;20718;-80
2023/03/02 03:05:33;;;;;;;14.25;11.25;;;14.40;42.60;;;;;;4988086;28;20224;-80
2023/03/02 03:08:08;;;;;;;14.23;11.82;;;14.30;42.60;;;;;;4972823;28;20252;-80
2023/03/02 03:10:38;;;;;;;15.75;12.82;;;14.30;42.70;;;;;;4988596;28;20196;-80
2023/03/02 03:13:07;;;;;;;15.68;12.18;;;14.30;42.70;;;;;;4989189;28;20198;-80
2023/03/02 03:15:34;;;;;;;15.55;11.60;;;14.30;42.60;;;;;;4989156;28;20256;-80
2023/03/02 03:18:03;;;;;;;16.55;12.05;;;14.30;42.70;;;;;;4988475;28;20221;-80
2023/03/02 03:20:32;;;;;;;17.48;12.40;;;14.30;42.70;;;;;;4987665;28;20247;-80
2023/03/02 03:23:00;;;;;;;14.02;11.93;;;14.30;42.70;;;;;;4969335;28;20217;-80
2023/03/02 03:25:30;;;;;;;15.65;12.18;;;14.30;42.70;;;;;;4980784;28;20267;-80
2023/03/02 03:27:58;;;;;;;15.88;12.13;;;14.30;42.70;;;;;;4980778;28;20259;-80
2023/03/02 03:30:25;;;;;;;14.85;12.18;;;14.20;42.60;;;;;;4965927;28;20330;-81
2023/03/02 03:32:52;;;;;;;14.75;12.43;;;14.20;42.50;;;;;;4984712;28;20214;-81
2023/03/02 03:35:21;;;;;;;14.35;11.88;;;14.20;42.60;;;;;;4988145;28;20197;-81
2023/03/02 03:37:50;;;;;;;14.02;11.77;;;14.20;42.50;;;;;;4973263;28;20225;-80
2023/03/02 03:40:19;;;;;;;14.68;11.70;;;14.20;42.80;;;;;;4989737;28;20190;-80
2023/03/02 03:42:47;;;;;;;14.85;11.82;;;14.20;42.70;;;;;;4989554;28;20240;-81
2023/03/02 03:45:15;;;;;;;12.85;11.30;;;14.20;43.20;;;;;;4989980;28;20224;-80
2023/03/02 03:47:43;;;;;;;13.68;12.10;;;14.20;42.70;;;;;;4989719;28;20204;-80
2023/03/02 03:50:11;;;;;;;14.90;11.90;;;14.20;42.70;;;;;;4990688;28;20273;-80
2023/03/02 03:52:52;;;;;;;13.85;11.52;;;14.20;42.70;;;;;;4990664;28;20204;-80
2023/03/02 03:55:27;;;;;;;15.55;11.90;;;14.10;42.60;;;;;;4990758;28;20186;-80
2023/03/02 03:57:54;;;;;;;14.07;11.82;;;14.20;42.70;;;;;;4991095;28;20238;-81
2023/03/02 04:00:23;;;;;;;16.17;12.85;;;14.10;42.60;;;;;;4974535;28;20193;-81
2023/03/02 04:02:55;;;;;;;13.88;11.32;;;14.10;42.70;;;;;;4990990;28;20205;-81
2023/03/02 04:05:23;;;;;;;16.35;12.77;;;14.10;42.70;;;;;;4990270;28;20617;-81
2023/03/02 04:07:54;;;;;;;15.48;11.88;;;14.10;42.50;;;;;;4991587;28;20213;-81
2023/03/02 04:10:22;;;;;;;13.50;11.35;;;14.10;42.70;;;;;;4991669;28;20201;-81
2023/03/02 04:12:51;;;;;;;13.82;10.45;;;14.10;42.60;;;;;;4989576;28;20305;-81
2023/03/02 04:15:19;;;;;;;15.32;12.20;;;14.10;42.80;;;;;;4980286;28;20248;-81
2023/03/02 04:17:47;;;;;;;12.45;11.15;;;14.10;43.10;;;;;;4991491;28;20201;-81
2023/03/02 04:20:17;;;;;;;14.43;11.73;;;14.00;43.20;;;;;;4992138;28;20300;-81
2023/03/02 04:22:48;;;;;;;13.95;11.77;;;14.00;43.20;;;;;;4993975;28;20206;-81
2023/03/02 04:25:20;;;;;;;14.45;11.95;;;14.00;43.20;;;;;;4993209;28;20262;-81
2023/03/02 04:27:50;;;;;;;14.32;11.15;;;14.00;43.10;;;;;;4990860;28;20221;-81
2023/03/02 04:30:19;;;;;;;14.80;12.40;;;14.10;43.10;;;;;;4975122;28;20200;-81
2023/03/02 04:32:47;;;;;;;14.82;12.18;;;14.10;43.00;;;;;;4990664;28;20208;-81
2023/03/02 04:35:15;;;;;;;14.35;12.25;;;14.10;43.00;;;;;;4991093;28;20201;-81
2023/03/02 04:37:42;;;;;;;13.55;11.82;;;14.00;42.80;;;;;;4990402;28;20228;-81
2023/03/02 04:40:11;;;;;;;14.93;11.65;;;14.10;42.80;;;;;;4991173;28;20207;-81
2023/03/02 04:42:40;;;;;;;15.45;12.80;;;14.10;42.80;;;;;;4991381;28;20222;-81
2023/03/02 04:45:10;;;;;;;18.17;12.50;;;14.10;43.40;;;;;;4981231;28;20636;-81
2023/03/02 04:47:38;;;;;;;16.23;12.30;;;14.10;42.80;;;;;;4986973;28;20185;-81
2023/03/02 04:50:07;;;;;;;14.20;12.20;;;14.10;42.70;;;;;;4999565;28;20211;-81
2023/03/02 04:52:33;;;;;;;14.05;11.82;;;14.20;42.90;;;;;;4999747;28;20269;-81
2023/03/02 04:55:01;;;;;;;13.32;11.65;;;14.20;42.70;;;;;;4999519;28;20224;-81
2023/03/02 04:57:28;;;;;;;14.25;11.88;;;14.20;42.70;;;;;;4999154;28;20202;-81
2023/03/02 04:59:56;;;;;;;13.90;12.10;;;14.20;42.70;;;;;;4999735;28;20345;-81
2023/03/02 05:02:24;;;;;;;14.40;11.82;;;14.20;42.70;;;;;;4999241;28;20239;-82
2023/03/02 05:04:51;;;;;;;13.30;10.90;;;14.20;42.90;;;;;;4995315;28;20203;-81
2023/03/02 05:07:18;;;;;;;12.65;10.93;;;14.20;42.90;;;;;;4979367;28;20197;-81
2023/03/02 05:09:45;;;;;;;13.63;11.00;;;14.20;42.90;;;;;;4962923;28;20221;-81
2023/03/02 05:12:13;;;;;;;13.30;11.30;;;14.20;43.10;;;;;;4965101;28;20197;-81
2023/03/02 05:14:40;;;;;;;13.02;10.82;;;14.10;42.80;;;;;;4982119;28;20289;-81
2023/03/02 05:17:08;;;;;;;13.38;11.30;;;14.20;42.70;;;;;;4982338;28;20688;-82
2023/03/02 05:19:35;;;;;;;12.25;10.63;;;14.20;42.80;;;;;;4982989;28;20217;-82
2023/03/02 05:22:03;;;;;;;12.15;10.80;;;14.20;42.70;;;;;;5002783;28;20300;-82
2023/03/02 05:24:30;;;;;;;15.95;11.65;;;14.30;42.70;;;;;;4984883;28;20206;-81
2023/03/02 05:26:57;;;;;;;13.77;11.55;;;14.30;42.60;;;;;;4982016;28;20206;-81
2023/03/02 05:29:24;;;;;;;12.77;10.77;;;14.30;42.50;;;;;;4981577;28;20314;-82
2023/03/02 05:31:51;;;;;;;14.60;11.43;;;14.30;42.50;;;;;;4982888;28;20265;-81
2023/03/02 05:34:20;;;;;;;13.90;11.63;;;14.40;42.40;;;;;;4983690;28;20193;-82
2023/03/02 05:36:47;;;;;;;13.27;11.57;;;14.40;42.40;;;;;;4981662;28;20217;-82
2023/03/02 05:39:36;;;;;;;13.25;10.55;;;14.40;42.30;;;;;;4998006;28;20309;-81
2023/03/02 05:42:03;;;;;;;12.65;10.57;;;14.40;42.20;;;;;;4977571;28;20214;-81
2023/03/02 05:44:30;;;;;;;14.02;10.82;;;14.50;42.50;;;;;;4982611;28;20201;-81
2023/03/02 05:46:58;;;;;;;12.43;10.48;;;14.50;42.60;;;;;;4983966;28;20202;-81
2023/03/02 05:49:26;;;;;;;12.52;10.40;;;14.50;42.60;;;;;;4983562;28;20236;-81
2023/03/02 05:51:53;;;;;;;13.93;11.52;;;14.50;42.60;;;;;;4985143;28;20300;-81
2023/03/02 05:54:19;;;;;;;11.80;10.20;;;14.50;42.50;;;;;;4984923;28;20201;-81
2023/03/02 05:56:47;;;;;;;13.43;10.40;;;14.50;42.60;;;;;;4984383;28;20201;-81
2023/03/02 05:59:14;;;;;;;13.88;11.25;;;14.50;42.40;;;;;;4984351;28;20225;-81
2023/03/02 06:01:41;;;;;;;15.43;11.38;;;14.50;42.50;;;;;;4985038;28;20208;-81
2023/03/02 06:04:08;;;;;;;13.48;11.43;;;14.60;42.60;;;;;;4984692;28;20579;-81
2023/03/02 06:06:40;;;;;;;13.07;10.93;;;14.60;42.40;;;;;;4984851;28;20216;-82
2023/03/02 06:09:07;;;;;;;12.77;11.48;;;14.60;42.50;;;;;;4968321;28;20225;-84
2023/03/02 06:11:34;;;;;;;12.13;10.90;;;14.60;42.20;;;;;;4984176;28;20547;-84
2023/03/02 06:14:01;;;;;;;12.75;11.00;;;14.60;42.00;;;;;;4985162;28;20277;-84
2023/03/02 06:16:29;;;;;;;14.38;11.75;;;14.70;42.30;;;;;;4982779;28;20820;-84
2023/03/02 06:18:56;;;;;;;12.95;11.13;;;14.80;42.10;;;;;;4968224;28;20746;-84
2023/03/02 06:21:24;;;;;;;13.68;11.10;;;14.80;42.20;;;;;;4970213;28;20203;-83
2023/03/02 06:23:52;;;;;;;11.90;10.55;;;14.80;42.20;;;;;;4986909;28;20288;-84
2023/03/02 06:26:19;;;;;;;12.73;10.90;;;14.80;42.10;;;;;;4988405;28;20212;-84
2023/03/02 06:28:46;;;;;;;15.45;11.20;;;14.80;42.00;;;;;;4993642;28;20221;-84
2023/03/02 06:31:13;;;;;;;13.40;10.43;;;14.90;42.00;;;;;;4998813;28;20201;-84
2023/03/02 06:33:40;;;;;;;14.73;11.50;;;14.90;42.20;;;;;;4987005;28;20201;-83
2023/03/02 06:36:07;;;;;;;14.60;11.77;;;14.90;42.10;;;;;;4986316;28;20565;-82
2023/03/02 06:38:34;;;;;;;13.15;11.43;;;14.90;42.40;;;;;;4986052;28;20221;-83
2023/03/02 06:41:03;;;;;;;12.88;11.20;;;14.90;42.20;;;;;;4985209;28;20284;-83
2023/03/02 06:43:30;;;;;;;12.10;10.40;;;15.00;42.00;;;;;;4984894;28;20304;-83
2023/03/02 06:45:59;;;;;;;12.88;10.68;;;15.00;42.10;;;;;;4984821;28;20337;-84
2023/03/02 06:48:26;;;;;;;12.45;10.95;;;15.00;42.30;;;;;;4968753;28;20308;-83
2023/03/02 06:50:53;;;;;;;11.32;9.93;;;15.10;42.20;;;;;;4986381;28;20221;-80
2023/03/02 06:53:22;;;;;;;12.68;11.18;;;15.10;42.30;;;;;;4987796;28;20627;-80
2023/03/02 06:55:49;;;;;;;12.48;10.73;;;15.10;42.20;;;;;;4985112;28;20205;-80
2023/03/02 06:58:17;;;;;;;11.50;10.30;;;15.10;42.00;;;;;;4986050;28;20235;-80
2023/03/02 07:00:44;;;;;;;10.52;9.43;;;15.10;42.00;;;;;;4982788;28;20742;-79
2023/03/02 07:03:11;;;;;;;12.30;11.00;;;15.20;42.10;;;;;;4982601;28;20228;-79
2023/03/02 07:05:38;;;;;;;12.70;10.60;;;15.20;42.00;;;;;;4964695;28;20210;-79
2023/03/02 07:08:05;;;;;;;11.30;10.07;;;15.20;42.00;;;;;;4963505;28;20221;-79
2023/03/02 07:10:33;;;;;;;12.68;10.50;;;15.20;41.90;;;;;;4979199;28;20197;-79
2023/03/02 07:13:00;;;;;;;12.05;10.27;;;15.30;42.00;;;;;;4979141;28;20636;-79
2023/03/02 07:15:28;;;;;;;11.32;10.07;;;15.30;42.00;;;;;;4979460;28;20264;-81
2023/03/02 07:17:55;;;;;;;12.57;11.00;;;15.30;41.90;;;;;;4979296;28;20232;-83
2023/03/02 07:20:22;;;;;;;12.27;10.60;;;15.40;42.00;;;;;;4964996;28;20220;-82
2023/03/02 07:22:49;;;;;;;12.70;10.45;;;15.30;41.70;;;;;;4980113;28;20221;-79
2023/03/02 07:25:16;;;;;;;12.23;10.57;;;15.30;41.60;;;;;;4980819;28;20615;-80
2023/03/02 07:27:44;;;;;;;15.50;10.65;;;15.30;41.40;;;;;;4980394;28;20197;-80
2023/03/02 07:30:13;;;;;;;12.10;10.80;;;15.40;41.30;;;;;;4979841;28;20276;-80
2023/03/02 07:32:42;;;;;;;11.10;9.95;;;15.40;41.30;;;;;;4964639;28;20205;-80
2023/03/02 07:35:10;;;;;;;11.60;9.57;;;15.40;41.30;;;;;;4979639;28;20309;-80
2023/03/02 07:37:36;;;;;;;12.30;10.35;;;15.50;41.40;;;;;;4979595;28;20216;-80
2023/03/02 07:40:05;;;;;;;13.20;10.93;;;15.50;41.30;;;;;;4979466;28;20205;-80
2023/03/02 07:42:32;;;;;;;13.13;10.60;;;15.50;40.90;;;;;;4979159;28;20220;-80
2023/03/02 07:45:03;;;;;;;11.52;10.13;;;15.60;41.00;;;;;;4979282;28;20568;-80
2023/03/02 07:47:30;;;;;;;12.68;10.13;;;15.60;41.50;;;;;;4979421;28;20221;-81
2023/03/02 07:49:58;;;;;;;12.48;10.55;;;15.60;40.90;;;;;;4978857;28;20201;-81
2023/03/02 07:52:25;;;;;;;11.07;9.85;;;15.60;40.70;;;;;;4978628;28;20292;-81
2023/03/02 07:54:52;;;;;;;13.48;9.85;;;15.60;40.70;;;;;;4978405;28;20197;-81
2023/03/02 07:57:20;;;;;;;12.23;10.77;;;15.60;40.80;;;;;;4962361;28;20568;-80
2023/03/02 07:59:47;;;;;;;11.60;10.38;;;15.70;40.70;;;;;;4978706;28;20232;-80
2023/03/02 08:02:16;;;;;;;11.93;10.25;;;15.70;40.30;;;;;;4978169;28;20248;-80
2023/03/02 08:04:43;;;;;;;12.65;10.55;;;15.70;40.40;;;;;;4978367;28;20197;-80
2023/03/02 08:07:13;;;;;;;11.20;10.10;;;15.80;40.50;;;;;;4978922;28;20285;-80
2023/03/02 08:09:40;;;;;;;11.75;10.52;;;15.80;40.40;;;;;;4978269;28;20754;-80
2023/03/02 08:12:07;;;;;;;12.15;10.82;;;15.80;40.30;;;;;;4979102;28;20206;-80
2023/03/02 08:14:34;;;;;;;11.75;10.50;;;15.90;40.20;;;;;;4978992;28;20201;-80
2023/03/02 08:17:01;;;;;;;13.48;11.65;;;15.90;40.20;;;;;;4978334;28;20759;-80
2023/03/02 08:19:28;;;;;;;11.63;10.18;;;15.90;39.90;;;;;;4978094;28;20624;-80
2023/03/02 08:21:56;;;;;;;13.88;11.35;;;15.90;39.90;;;;;;4979076;28;20573;-80
2023/03/02 08:24:25;;;;;;;11.73;10.15;;;16.00;39.60;;;;;;4977976;28;20680;-80
2023/03/02 08:26:52;;;;;;;11.65;10.45;;;16.00;39.90;;;;;;4979315;28;20201;-80
2023/03/02 08:29:19;;;;;;;11.95;10.10;;;16.00;39.70;;;;;;4979895;28;20225;-80
2023/03/02 08:31:47;;;;;;;12.02;10.27;;;16.00;39.80;;;;;;4978511;28;20208;-80
2023/03/02 08:34:14;;;;;;;11.57;10.30;;;16.10;39.70;;;;;;4978720;28;20284;-80
2023/03/02 08:36:42;;;;;;;11.73;10.50;;;16.10;39.70;;;;;;4978028;28;20271;-80
2023/03/02 08:39:09;;;;;;;11.48;10.27;;;16.10;39.50;;;;;;4962022;28;20240;-80
2023/03/02 08:41:38;;;;;;;12.18;10.70;;;16.10;39.50;;;;;;4979026;28;20296;-80
2023/03/02 08:44:06;;;;;;;12.40;11.10;;;16.10;39.40;;;;;;4977716;28;20684;-80
2023/03/02 08:46:33;;;;;;;12.25;10.95;;;16.20;39.50;;;;;;4977857;28;20202;-80
2023/03/02 08:49:00;;;;;;;11.07;9.80;;;16.20;39.40;;;;;;4978364;28;20577;-80
2023/03/02 08:51:27;;;;;;;11.65;10.35;;;16.30;39.50;;;;;;4977901;28;20236;-80
2023/03/02 08:53:55;;;;;;;13.23;9.98;;;16.30;39.50;;;;;;4977887;28;20193;-80
2023/03/02 08:56:23;;;;;;;10.68;9.43;;;16.40;39.30;;;;;;4995615;28;20185;-80
2023/03/02 08:58:52;;;;;;;10.77;9.65;;;16.50;39.40;;;;;;4978303;28;20699;-80
2023/03/02 09:01:19;;;;;;;12.70;10.43;;;16.70;39.20;;;;;;4978751;28;20205;-80
2023/03/02 09:03:47;;;;;;;13.70;11.20;;;16.80;38.80;;;;;;4979770;28;20684;-80
2023/03/02 09:06:14;;;;;;;12.52;10.63;;;16.90;38.80;;;;;;4978338;28;20252;-80
2023/03/02 09:08:41;;;;;;;11.25;9.80;;;17.00;38.60;;;;;;4977349;28;20224;-80
2023/03/02 09:11:08;;;;;;;10.27;8.80;;;17.10;38.60;;;;;;4977455;28;20212;-80
2023/03/02 09:13:36;;;;;;;11.13;9.20;;;17.20;38.60;;;;;;4961485;28;20198;-80
2023/03/02 09:16:04;;;;;;;11.63;10.43;;;17.40;38.00;;;;;;4977985;28;20193;-80
2023/03/02 09:18:31;;;;;;;10.70;9.55;;;17.50;37.60;;;;;;4996980;28;20217;-80
2023/03/02 09:20:59;;;;;;;11.15;9.30;;;17.60;37.60;;;;;;4983039;28;20366;-80
2023/03/02 09:23:26;;;;;;;12.70;9.95;;;17.70;37.30;;;;;;4984335;28;20217;-80
2023/03/02 09:25:53;;;;;;;10.13;9.10;;;17.70;37.10;;;;;;4987987;28;20210;-80
2023/03/02 09:28:21;;;;;;;10.05;8.95;;;17.80;37.20;;;;;;4985622;28;20232;-80
2023/03/02 09:30:48;;;;;;;10.43;9.32;;;17.80;37.10;;;;;;4986558;28;20320;-80
2023/03/02 09:33:16;;;;;;;10.85;9.18;;;17.80;37.00;;;;;;4984404;28;20216;-80
2023/03/02 09:35:44;;;;;;;9.68;8.68;;;17.90;37.00;;;;;;4984415;28;20219;-80
2023/03/02 09:38:14;;;;;;;11.07;9.40;;;17.90;36.90;;;;;;4984540;28;20228;-80
2023/03/02 09:40:50;;;;;;;9.50;8.50;;;17.90;36.70;;;;;;4989400;28;20204;-80
2023/03/02 09:43:31;;;;;;;10.90;9.15;;;18.00;36.80;;;;;;4992358;28;20553;-80
2023/03/02 09:46:02;;;;;;;10.38;9.07;;;18.00;36.80;;;;;;4992601;28;20223;-80
2023/03/02 09:48:37;;;;;;;12.43;9.30;;;18.00;36.80;;;;;;4977221;28;20438;-80
2023/03/02 09:51:21;;;;;;;10.85;9.75;;;18.10;37.00;;;;;;4992505;28;20197;-80
2023/03/02 09:53:53;;;;;;;10.05;8.82;;;18.00;36.60;;;;;;4988418;28;20620;-80
2023/03/02 09:56:20;;;;;;;9.88;8.88;;;18.10;36.70;;;;;;4987238;28;20215;-80
2023/03/02 09:58:51;;;;;;;9.55;8.55;;;18.10;36.80;;;;;;4985707;28;20209;-80
2023/03/02 10:01:23;;;;;;;10.23;8.95;;;18.10;36.70;;;;;;4989275;28;20240;-80
2023/03/02 10:03:55;;;;;;;10.23;8.75;;;18.10;36.70;;;;;;4992741;28;20241;-80
2023/03/02 10:06:22;;;;;;;9.27;8.38;;;18.20;36.60;;;;;;4990876;28;20228;-80
2023/03/02 10:08:49;;;;;;;9.65;8.25;;;18.30;36.80;;;;;;4991115;28;20611;-80
2023/03/02 10:11:19;;;;;;;9.63;8.30;;;18.30;36.60;;;;;;4984893;28;20197;-80
2023/03/02 10:13:48;;;;;;;9.63;8.63;;;18.30;36.60;;;;;;4981737;28;20224;-80
2023/03/02 10:16:24;;;;;;;8.73;7.82;;;18.30;36.60;;;;;;4989632;28;20656;-80
2023/03/02 10:18:58;;;;;;;8.48;7.70;;;18.30;36.50;;;;;;4971835;28;20239;-80
2023/03/02 10:21:26;;;;;;;9.80;8.88;;;18.40;36.80;;;;;;4988006;28;20197;-80
2023/03/02 10:23:56;;;;;;;8.80;7.90;;;18.30;36.40;;;;;;4989032;28;20284;-80
2023/03/02 10:26:29;;;;;;;8.98;8.00;;;18.40;36.50;;;;;;4988115;28;20617;-80
2023/03/02 10:29:00;;;;;;;9.57;8.02;;;18.40;36.40;;;;;;4987597;28;20295;-80
2023/03/02 10:31:29;;;;;;;9.30;7.88;;;18.40;36.30;;;;;;4988177;28;20194;-80
2023/03/02 10:33:57;;;;;;;9.48;8.50;;;18.50;36.40;;;;;;4987317;28;20197;-80
2023/03/02 10:36:26;;;;;;;9.50;8.18;;;18.50;36.30;;;;;;4988229;28;20300;-80
2023/03/02 10:38:53;;;;;;;9.05;7.70;;;18.50;36.10;;;;;;4988816;28;20228;-81
2023/03/02 10:41:22;;;;;;;8.88;7.97;;;18.60;36.00;;;;;;4988031;28;20233;-81
2023/03/02 10:43:51;;;;;;;9.85;8.15;;;18.60;36.00;;;;;;4987124;28;20217;-81
2023/03/02 10:46:18;;;;;;;8.80;8.00;;;18.70;35.90;;;;;;4987275;28;20213;-81
2023/03/02 10:48:48;;;;;;;9.15;8.18;;;18.70;35.90;;;;;;4983055;28;20221;-81
2023/03/02 10:51:27;;;;;;;8.75;7.85;;;18.70;35.90;;;;;;4997743;28;20197;-81
2023/03/02 10:54:07;;;;;;;9.07;8.15;;;18.70;36.10;;;;;;4966215;28;20267;-81
2023/03/02 10:56:35;;;;;;;8.45;7.65;;;18.70;36.10;;;;;;4982666;28;20637;-81
2023/03/02 10:59:12;;;;;;;9.18;8.13;;;18.70;35.90;;;;;;4980019;28;20217;-81
2023/03/02 11:01:39;;;;;;;9.93;7.88;;;18.70;36.20;;;;;;4965122;28;20197;-81
2023/03/02 11:04:14;;;;;;;8.95;8.05;;;18.80;36.20;;;;;;4979650;28;20367;-81
2023/03/02 11:06:42;;;;;;;9.57;8.10;;;18.80;36.10;;;;;;4979922;28;20209;-81
2023/03/02 11:09:13;;;;;;;8.35;7.53;;;19.00;35.90;;;;;;4979933;28;20222;-81
2023/03/02 11:11:40;;;;;;;9.00;8.10;;;19.00;35.90;;;;;;4980220;28;20351;-81
2023/03/02 11:14:13;;;;;;;9.25;8.25;;;19.00;35.90;;;;;;4963985;28;20232;-81
2023/03/02 11:16:40;;;;;;;9.15;7.95;;;19.10;36.00;;;;;;4979681;28;20260;-81
2023/03/02 11:19:12;;;;;;;9.27;8.27;;;19.10;36.60;;;;;;4980502;28;20664;-81
2023/03/02 11:21:43;;;;;;;8.73;7.85;;;19.20;36.10;;;;;;4986096;28;20562;-81
2023/03/02 11:24:12;;;;;;;8.73;7.82;;;19.20;36.10;;;;;;4986218;28;20329;-81
2023/03/02 11:26:44;;;;;;;8.07;7.28;;;19.20;36.00;;;;;;4986253;28;20216;-81
2023/03/02 11:29:33;;;;;;;8.52;7.72;;;19.30;36.10;;;;;;5003094;28;20228;-81
2023/03/02 11:32:02;;;;;;;8.23;7.32;;;19.30;35.90;;;;;;4985454;28;20572;-81
2023/03/02 11:34:32;;;;;;;8.02;7.25;;;19.30;35.70;;;;;;4986372;28;20215;-81
2023/03/02 11:37:04;;;;;;;9.02;8.02;;;19.30;35.90;;;;;;4985145;28;20205;-81
2023/03/02 11:39:37;;;;;;;8.75;7.85;;;19.30;35.90;;;;;;4986054;28;20232;-81
2023/03/02 11:42:04;;;;;;;7.65;6.95;;;19.30;35.90;;;;;;4981026;28;20189;-81
2023/03/02 11:44:31;;;;;;;7.20;6.50;;;19.40;36.10;;;;;;4963545;28;20586;-81
2023/03/02 11:47:01;;;;;;;7.97;7.28;;;19.40;36.20;;;;;;4979732;28;20201;-81
2023/03/02 11:49:35;;;;;;;7.40;6.65;;;19.40;36.10;;;;;;4979668;28;20217;-81
2023/03/02 11:52:04;;;;;;;8.43;7.53;;;19.40;36.00;;;;;;4980354;28;20627;-81
2023/03/02 11:54:36;;;;;;;7.40;6.70;;;19.50;36.30;;;;;;4984483;28;20193;-81
2023/03/02 11:57:04;;;;;;;7.68;6.90;;;19.50;35.90;;;;;;4984581;28;20204;-81
2023/03/02 11:59:31;;;;;;;7.82;7.13;;;19.50;35.80;;;;;;4984045;28;20226;-81
2023/03/02 12:01:59;;;;;;;7.18;6.47;;;19.60;35.80;;;;;;5001188;28;20194;-81
2023/03/02 12:04:27;;;;;;;8.27;7.03;;;19.60;36.30;;;;;;4964075;28;20252;-81
2023/03/02 12:06:55;;;;;;;7.45;6.75;;;19.70;35.70;;;;;;4980331;28;20209;-81
2023/03/02 12:09:33;;;;;;;7.28;6.60;;;19.70;35.60;;;;;;4979697;28;20221;-81
2023/03/02 12:12:29;;;;;;;7.82;7.10;;;19.80;35.60;;;;;;4979341;28;20201;-81
2023/03/02 12:31:12;;;;;;;7.78;7.00;;;19.80;35.60;;;;;;5639343;23;20556;-80
2023/03/02 12:39:06;;;;;;;8.80;7.57;;;19.80;35.50;;;;;;4953814;28;20222;-54
2023/03/02 12:41:40;;;;;;;8.00;7.20;;;19.80;35.70;;;;;;4955379;29;20189;-54
2023/03/02 12:44:22;;;;;;;8.20;7.40;;;19.80;35.70;;;;;;4955392;29;20574;-54
2023/03/02 12:46:51;;;;;;;7.60;6.90;;;19.80;35.60;;;;;;4955246;29;20262;-55
2023/03/02 12:49:32;;;;;;;7.18;6.47;;;19.80;35.70;;;;;;4954792;28;20242;-54
2023/03/02 12:52:00;;;;;;;8.10;7.30;;;19.80;35.90;;;;;;4954727;29;20258;-54
2023/03/02 12:54:28;;;;;;;8.13;7.28;;;19.80;35.70;;;;;;4937188;29;20226;-55
2023/03/02 12:57:07;;;;;;;8.05;7.35;;;19.80;35.70;;;;;;4955004;29;20585;-54
2023/03/02 12:59:34;;;;;;;7.90;7.10;;;19.90;35.90;;;;;;4955602;28;20258;-54
2023/03/02 13:02:16;;;;;;;8.00;7.20;;;19.80;35.70;;;;;;4954657;28;20298;-54
2023/03/02 13:04:44;;;;;;;8.32;6.97;;;19.80;35.80;;;;;;4954792;29;20558;-55
2023/03/02 13:07:16;;;;;;;7.82;7.03;;;19.80;35.80;;;;;;4954782;29;20586;-55